CheckWX is a tool to help pilots better visualize weather data.  It is not intended as a substitute for an official pre-flight weather briefing.

21:41:56 UTC

LGIO TAF
Ioannina Airport
Ioannina, Greece
TAF LGIO 202000Z 2021/2106 VRB03KT CAVOK PROB40 2103/2106 5000 BR SCT005

Mar-20@
21:00 UTC

Mar-20 @ 21:00 UTC

Mar-21@
06:00 UTC

Mar-21 @ 06:00 UTC

TAF LGIO 202000Z 2021/2106 VRB03KT CAVOK
Wind
  • Variable at 3 KTS
Conditions
No significant weather
Cloud Levels
  • No significant clouds

Mar-21@
03:00 UTC

Mar-21 @ 03:00 UTC

Mar-21@
06:00 UTC

Mar-21 @ 06:00 UTC

PROB40 2103/2106 5000 BR SCT005

Probable - 40% Likelihood

Probable - 40% Likelihood during this time.

Conditions
Mist
Cloud Levels
  • Scattered at 500' AGL